Tiempo atmosférico en la estación meteorológica de Barcelona, Museo Marítimo, Barcelona (37 m.)



Fecha
DESCASC
Temp. máxima en grados centígrados (hora)
DESCASC
Temp. mínima en grados centígrados (hora)
DESCASC
Temp. media en grados centígrados
DESCASC
Racha de viento máxima en m/sg (hora)
DESCASC
Velocidad máxima media en intervalos de 10 minutos(hora)
DESCASC
Precipitaciones diarias en mm
DESCASC
Precipitaciones de 00:00 a 06:00 en mm
DESCASC
Precipitaciones de 06:00 a 12:00 en mm
DESCASC
Precipitaciones de 12:00 a 18:00 en mm
DESCASC
Precipitaciones de 18:00 a 24:00 en mm
DESCASC
26-12-2019 -- (--) -- (--) -- 5.56 (03:40) 2.78 (03:40) -- -- -- -- --
05-01-2020 15.1 (15:30) 7.9 (00:00) 11.5 6.11 (03:40) 3.89 (03:50) -- 0 -- -- --
25-12-2019 -- (--) -- (--) -- 5.28 (21:00) 2.78 (15:10) -- -- -- -- --
02-01-2020 -- (--) -- (--) -- 7.22 (16:10) 3.61 (16:10) -- -- -- -- --
01-01-2020 -- (--) -- (--) -- 4.44 (01:30) 2.22 (01:30) -- -- -- -- --
31-12-2019 -- (--) -- (--) -- 5.56 (13:30) 2.78 (12:30) -- -- -- -- --
30-12-2019 -- (--) -- (--) -- -- (--) -- (--) -- -- -- -- --
29-12-2019 -- (--) -- (--) -- 3.61 (16:00) 1.67 (12:20) -- -- -- -- --
28-12-2019 -- (--) -- (--) -- 3.89 (13:10) 2.5 (13:20) -- -- -- -- --
27-12-2019 -- (--) -- (--) -- 5.83 (15:20) 2.78 (01:40) -- -- -- -- --
20-01-2020 11.1 (00:00) 8.2 (00:00) 9.7 18.61 (14:40) 7.22 (19:40) 5.2 0 0 0 5.2
23-01-2020 15.5 (15:00) 10.5 (00:00) 13 11.67 (03:10) 5 (03:30) 15.2 15.2 0 0 0
19-01-2020 12.2 (15:40) 9.3 (00:00) 10.8 14.72 (16:30) 6.39 (17:20) 2.2 2.2 0 0 0
18-01-2020 15.5 (15:40) 10.2 (00:00) 12.8 6.94 (17:00) 3.89 (16:50) 0 0 0 0 0
17-01-2020 18.8 (14:30) 10.2 (00:00) 14.5 9.17 (14:00) 5 (14:10) 0 0 0 0 0
16-01-2020 15.7 (15:30) 8.1 (00:00) 11.9 6.39 (16:00) 3.33 (14:30) 0 0 0 0 0
15-01-2020 15.1 (15:00) 7 (00:00) 11.1 6.94 (16:10) 4.17 (16:00) 0 0 0 0 0
14-01-2020 15.2 (14:00) 6.9 (00:00) 11 6.67 (17:00) 3.89 (14:20) 0 0 0 0 0
13-01-2020 13.3 (14:40) 7.3 (00:00) 10.3 7.5 (15:10) 3.33 (15:10) 0 0 0 0 0
12-01-2020 14 (16:10) 5.4 (00:00) 9.7 5.28 (21:30) 3.06 (21:20) 0 0 0 0 0
11-01-2020 12.6 (15:40) 7 (00:00) 9.8 4.72 (11:20) 2.5 (04:30) 0 0 0 0 0
09-01-2020 14.7 (15:30) 7.8 (00:00) 11.3 7.5 (16:40) 4.17 (16:20) 0 0 0 0 0
08-01-2020 16.4 (14:30) 8.1 (00:00) 12.3 3.89 (14:40) 1.94 (09:40) 0 0 0 0 0
07-01-2020 15.9 (16:10) 8.7 (00:00) 12.3 5.56 (14:00) 3.06 (15:00) 0 0 0 0 0
06-01-2020 15.5 (15:00) 7.7 (00:00) 11.6 3.33 (01:40) 1.94 (14:30) 0 0 0 0 0
04-01-2020 16 (16:00) 7.3 (00:00) 11.7 7.5 (20:00) 3.61 (21:00) 0 0 0 0 0
03-01-2020 13.9 (14:00) 8.1 (00:00) 11 4.17 (09:30) 2.78 (09:30) 0 0 0 0 0
22-01-2020 14.3 (13:00) 10.5 (00:00) 12.4 12.22 (19:50) 5.56 (20:40) 14 12.6 0.2 0 1.2
10-01-2020 12.4 (15:40) 8.9 (00:00) 10.6 5.83 (08:40) 3.33 (12:40) 14.2 0 14 0.2 0
21-01-2020 12.4 (13:30) 8.1 (00:00) 10.3 18.89 (10:10) 6.94 (09:50) 71.4 21.8 20.2 4 25.4

Gráficas

Temp. máximas Temp. mínimas Temp. medias Precipitaciones Rachas de viento máximas Velocidades máximas media en intervalos de 10 minutos

Datos horarios

Fecha y hora oficial Temperatura (ºC) Velocidad del viento (km/h) Dirección del viento Racha (km/h) Dirección de racha Precipitación (mm) Presión (hPa) Tendencia (hPa) Humedad (%)
2020-01-23 23:00:00 11.1 5 Noroeste 6 Noroeste 0 -- -- 79
2020-01-23 22:00:00 11.2 4 Noroeste 6 Oeste 0 -- -- 83
2020-01-23 21:00:00 11.4 0 Calma 7 Noroeste 0 -- -- 82
2020-01-23 20:00:00 12 5 Oeste 9 Oeste 0 -- -- 79
2020-01-23 19:00:00 12.1 5 Oeste 9 Oeste 0 -- -- 78
2020-01-23 18:00:00 12.9 6 Oeste 12 Noroeste 0 -- -- 72
2020-01-23 17:00:00 14.1 5 Oeste 15 Oeste 0 -- -- 65
2020-01-23 16:00:00 15.1 8 Oeste 19 Sudoeste 0 -- -- 61
2020-01-23 15:00:00 15.5 8 Oeste 14 Oeste 0 -- -- 65
2020-01-23 14:00:00 14.7 6 Oeste 17 Sudoeste 0 -- -- 73
2020-01-23 13:00:00 14.3 9 Oeste 14 Sudoeste 0 -- -- 75
2020-01-23 12:00:00 13.5 3 Oeste 9 Oeste 0 -- -- 77
2020-01-23 11:00:00 12.5 5 Oeste 13 Oeste 0 -- -- 87
2020-01-23 10:00:00 12.2 8 Oeste 15 Oeste 0 -- -- 88
2020-01-23 09:00:00 12.1 4 Noroeste 8 Oeste 0 -- -- 94
2020-01-23 08:00:00 11.7 3 Oeste 6 Oeste 0 -- -- 94
2020-01-23 07:00:00 12.1 3 Oeste 14 Sudeste 0 -- -- 95
2020-01-23 06:00:00 12.5 3 Este 14 Sur 2.6 -- -- 96
2020-01-23 05:00:00 12.9 5 Este 39 Sudeste 9.2 -- -- 95
2020-01-23 04:00:00 13.9 14 Este 42 Sudeste 1 -- -- 96
2020-01-23 03:00:00 13.7 12 Este 35 Nordeste 0 -- -- 95
2020-01-23 02:00:00 13.7 12 Este 36 Este 2 -- -- 95
2020-01-23 01:00:00 13.9 10 Este 28 Este 0.4 -- -- 94
2020-01-23 00:00:00 14 13 Sudeste 38 Sudeste 0.2 -- -- 94
2020-01-22 23:00:00 14 10 Este 34 Sudeste 1 -- -- 94
2020-01-22 22:00:00 14.2 13 Sudeste 37 Sudeste 0 -- -- 92
2020-01-22 21:00:00 14.3 14 Sudeste 40 Sudeste 0 -- -- 91
2020-01-22 20:00:00 14.3 14 Sudeste 44 Sudeste 0 -- -- 91
2020-01-22 19:00:00 14.3 15 Sudeste 42 Sudeste 0 -- -- 91
2020-01-22 18:00:00 14.3 17 Sudeste 39 Sudeste 0 -- -- 91
2020-01-22 17:00:00 14.3 14 Sudeste 36 Sur 0 -- -- 91
2020-01-22 16:00:00 14.3 16 Sudeste 40 Sudeste 0 -- -- 91
2020-01-22 15:00:00 14.2 12 Este 33 Sudeste 0 -- -- 92
2020-01-22 14:00:00 14.2 11 Sudeste 29 Este 0 -- -- 92
2020-01-22 13:00:00 14.3 12 Sudeste 34 Sudeste 0 -- -- 92
2020-01-22 12:00:00 14.2 9 Este 26 Sudeste 0.2 -- -- 93
2020-01-22 11:00:00 14.1 12 Este 35 Sudeste 0 -- -- 93
2020-01-22 10:00:00 12.3 5 Este 18 Este 0 -- -- 90
2020-01-22 09:00:00 11.5 4 Nordeste 15 Nordeste 0 -- -- 88
2020-01-22 08:00:00 11.1 5 Nordeste 14 Nordeste 0 -- -- 86
2020-01-22 07:00:00 10.6 3 Noroeste 16 Nordeste 0 -- -- 88
2020-01-22 06:00:00 10.6 8 Nordeste 21 Nordeste 1 -- -- 88
2020-01-22 05:00:00 11.1 7 Nordeste 19 Nordeste 0 -- -- 89
2020-01-22 04:00:00 11.4 7 Este 24 Este 0.4 -- -- 93
2020-01-22 03:00:00 11.1 6 Este 22 Nordeste 0.4 -- -- 93
2020-01-22 02:00:00 11.3 8 Este 22 Este 8.8 -- -- 92
2020-01-22 01:00:00 11.2 5 Nordeste 16 Noroeste 2 -- -- 92
2020-01-22 00:00:00 11 4 Noroeste 37 Sudeste 2.4 -- -- 88
2020-01-21 23:00:00 11.5 17 Este 58 Sudeste 8.4 -- -- 93
2020-01-21 22:00:00 11.9 19 Este 54 Este 8.6 -- -- 93
2020-01-21 21:00:00 11.7 21 Este 66 Nordeste 4 -- -- 91
2020-01-21 20:00:00 11.9 18 Este 57 Este 0.6 -- -- 88
2020-01-21 19:00:00 11.7 20 Este 62 Este 1.4 -- -- 89
2020-01-21 18:00:00 11.8 21 Este 57 Este 1.4 -- -- 90
2020-01-21 17:00:00 11.8 22 Este 60 Este 1.4 -- -- 90
2020-01-21 16:00:00 12 22 Este 60 Este 0.4 -- -- 88
2020-01-21 15:00:00 12.1 21 Este 58 Este 0.4 -- -- 89
2020-01-21 14:00:00 12.4 22 Este 64 Este 0 -- -- 88
2020-01-21 13:00:00 12.3 24 Este 57 Este 0.4 -- -- 89
2020-01-21 12:00:00 11.9 22 Este 56 Nordeste 1.8 -- -- 94
2020-01-21 11:00:00 11.3 20 Este 68 Este 2 -- -- 93
2020-01-21 10:00:00 11.2 23 Este 59 Nordeste 4.2 -- -- 93
2020-01-21 09:00:00 10.4 20 Este 54 Este 5.4 -- -- 94
2020-01-21 08:00:00 9.8 18 Este 54 Este 3 -- -- 92
2020-01-21 07:00:00 9.8 17 Este 49 Este 3.8 -- -- 91
2020-01-21 06:00:00 9.4 18 Este 48 Este 3.4 -- -- 89
2020-01-21 05:00:00 9.3 18 Este 51 Este 2.6 -- -- 89
2020-01-21 04:00:00 8.5 14 Este 43 Este 4.4 -- -- 89
2020-01-21 03:00:00 8.8 17 Este 40 Este 4.8 -- -- 85
2020-01-21 02:00:00 8.3 17 Este 44 Este 3.2 -- -- 85
2020-01-21 01:00:00 8.3 14 Este 49 Este 3.4 -- -- 85
2020-01-21 00:00:00 8.5 15 Este 46 Este 0.8 -- -- 80
2020-01-20 23:00:00 8.6 16 Este 46 Este 1.4 -- -- 81
2020-01-20 22:00:00 8.6 20 Este 55 Nordeste 1.6 -- -- 80
2020-01-20 21:00:00 8.7 20 Este 53 Este 0.6 -- -- 79
2020-01-20 20:00:00 8.3 22 Este 63 Este 0.4 -- -- 77
2020-01-20 19:00:00 8.5 22 Este 50 Este 0.4 -- -- 76
2020-01-20 18:00:00 8.4 17 Este 50 Este 0 -- -- 71
2020-01-20 17:00:00 9.1 21 Este 60 Este 0 -- -- 70
2020-01-20 16:00:00 9.3 19 Este 58 Este 0 -- -- 65
2020-01-20 15:00:00 10.1 21 Este 67 Este 0 -- -- 60
2020-01-20 14:00:00 9.8 21 Este 53 Este 0 -- -- 60
2020-01-20 13:00:00 9.9 19 Este 56 Este 0 -- -- 57
2020-01-20 12:00:00 10.6 20 Este 64 Este 0 -- -- 56
2020-01-20 11:00:00 10.3 16 Este 51 Nordeste 0 -- -- 53
2020-01-20 10:00:00 10.5 19 Este 46 Este 0 -- -- 49
2020-01-20 09:00:00 10.5 18 Este 62 Este 0 -- -- 47
2020-01-20 08:00:00 10.2 17 Este 46 Este 0 -- -- 44
2020-01-20 07:00:00 10.4 17 Este 45 Este 0 -- -- 41
2020-01-20 06:00:00 10.7 17 Este 45 Este 0 -- -- 36
2020-01-20 05:00:00 10.8 17 Este 53 Nordeste 0 -- -- 34
2020-01-20 04:00:00 11.1 18 Este 46 Nordeste 0 -- -- 33
2020-01-20 03:00:00 10.9 17 Este 45 Nordeste 0 -- -- 31
2020-01-20 02:00:00 10.9 14 Este 39 Nordeste 0 -- -- 31
2020-01-20 01:00:00 10.8 13 Este 39 Nordeste 0 -- -- 29
2020-01-20 00:00:00 11.1 12 Este 44 Este 0 -- -- 27
2020-01-19 23:00:00 11.1 14 Este 49 Este 0 -- -- 27
2020-01-19 22:00:00 11.2 18 Este 48 Este 0 -- -- 27
2020-01-19 21:00:00 11.2 15 Este 48 Nordeste 0 -- -- 29
2020-01-19 20:00:00 11.3 18 Este 42 Nordeste 0 -- -- 28
2020-01-19 19:00:00 11.4 18 Este 49 Este 0 -- -- 26
2020-01-19 18:00:00 11.2 16 Este 48 Este 0 -- -- 26
2020-01-19 17:00:00 11.7 22 Este 53 Nordeste 0 -- -- 25
2020-01-19 16:00:00 12.2 13 Este 42 Nordeste 0 -- -- 31
2020-01-19 15:00:00 12.1 14 Este 34 Nordeste 0 -- -- 34
2020-01-19 14:00:00 11.9 16 Este 37 Este 0 -- -- 37
2020-01-19 13:00:00 11.6 12 Este 40 Nordeste 0 -- -- 39
2020-01-19 12:00:00 11.3 14 Este 39 Nordeste 0 -- -- 44
2020-01-19 11:00:00 10.7 12 Este 34 Este 0 -- -- 47
2020-01-19 10:00:00 10 12 Este 26 Este 0 -- -- 57
2020-01-19 09:00:00 9.5 10 Este 33 Nordeste 0 -- -- 68
2020-01-19 08:00:00 9.5 9 Este 26 Nordeste 0 -- -- 74
2020-01-19 07:00:00 9.3 9 Este 29 Nordeste 0 -- -- 81
2020-01-19 06:00:00 9.5 9 Este 28 Nordeste 2 -- -- 86
2020-01-19 05:00:00 11.1 7 Este 19 Sudeste 0.2 -- -- 82
2020-01-19 04:00:00 11.4 4 Este 12 Este 0 -- -- 79
2020-01-19 03:00:00 11.6 4 Este 13 Nordeste 0 -- -- 75
2020-01-19 02:00:00 11.6 4 Este 10 Nordeste 0 -- -- 75
2020-01-19 01:00:00 11.6 4 Este 12 Nordeste 0 -- -- 73
2020-01-19 00:00:00 11.6 3 Este 5 Este 0 -- -- 75
2020-01-18 23:00:00 12 0 Calma 4 Oeste 0 -- -- 76
2020-01-18 22:00:00 12.3 3 Oeste 5 Oeste 0 -- -- 73
2020-01-18 21:00:00 11.9 3 Oeste 6 Sudoeste 0 -- -- 72
2020-01-18 20:00:00 12 4 Sudoeste 13 Oeste 0 -- -- 70
2020-01-18 19:00:00 12.1 6 Sudoeste 19 Oeste 0 -- -- 68
2020-01-18 18:00:00 12.3 10 Oeste 23 Sudoeste 0 -- -- 68
2020-01-18 17:00:00 13.2 14 Oeste 25 Oeste 0 -- -- 62
2020-01-18 16:00:00 15.3 12 Oeste 25 Oeste 0 -- -- 52
2020-01-18 15:00:00 14.9 7 Oeste 17 Oeste 0 -- -- 47
2020-01-18 14:00:00 14 6 Sudeste 12 Sudeste 0 -- -- 58
2020-01-18 13:00:00 13.8 6 Sudeste 12 Sudeste 0 -- -- 59
2020-01-18 12:00:00 12.8 3 Este 15 Oeste 0 -- -- 63
2020-01-18 11:00:00 10.8 8 Oeste 17 Oeste 0 -- -- 58
2020-01-18 10:00:00 10.6 7 Oeste 14 Noroeste 0 -- -- 60
2020-01-18 09:00:00 10.3 3 Oeste 13 Nordeste 0 -- -- 64
2020-01-18 08:00:00 10.4 3 Noroeste 13 Nordeste 0 -- -- 67
2020-01-18 07:00:00 10.7 2 Norte 12 Nordeste 0 -- -- 69
2020-01-18 06:00:00 10.6 3 Oeste 8 Oeste 0 -- -- 70
2020-01-18 05:00:00 10.8 3 Nordeste 10 Nordeste 0 -- -- 69
2020-01-18 04:00:00 10.3 2 Nordeste 10 Oeste 0 -- -- 58
2020-01-18 03:00:00 10.4 6 Oeste 18 Oeste 0 -- -- 52
2020-01-18 02:00:00 10.7 6 Oeste 10 Oeste 0 -- -- 52
2020-01-18 01:00:00 11.3 7 Oeste 12 Noroeste 0 -- -- 53
2020-01-18 00:00:00 11.5 5 Oeste 9 Noroeste 0 -- -- 61
2020-01-17 23:00:00 11.7 3 Oeste 13 Nordeste 0 -- -- 69
2020-01-17 22:00:00 12.8 5 Nordeste 12 Nordeste 0 -- -- 62
2020-01-17 21:00:00 13.4 4 Este 19 Oeste 0 -- -- 55
2020-01-17 20:00:00 14.5 12 Oeste 25 Oeste 0 -- -- 43
2020-01-17 19:00:00 14.9 6 Oeste 25 Noroeste 0 -- -- 42
2020-01-17 18:00:00 15.9 10 Oeste 32 Oeste 0 -- -- 44
2020-01-17 17:00:00 16.9 16 Oeste 32 Oeste 0 -- -- 44
2020-01-17 16:00:00 17.7 13 Oeste 33 Oeste 0 -- -- 45
2020-01-17 15:00:00 18.5 13 Oeste 33 Oeste 0 -- -- 42
2020-01-17 14:00:00 18.6 16 Oeste 33 Oeste 0 -- -- 43
2020-01-17 13:00:00 17.8 11 Oeste 25 Oeste 0 -- -- 45
2020-01-17 12:00:00 16 9 Oeste 23 Oeste 0 -- -- 53
2020-01-17 11:00:00 13.7 9 Oeste 17 Oeste 0 -- -- 62
2020-01-17 10:00:00 12.4 7 Oeste 15 Oeste 0 -- -- 69
2020-01-17 09:00:00 11 6 Oeste 15 Oeste 0 -- -- 81
2020-01-17 08:00:00 10.3 5 Oeste 15 Noroeste 0 -- -- 84
2020-01-17 07:00:00 10.5 8 Oeste 14 Noroeste 0 -- -- 84
2020-01-17 06:00:00 10.7 6 Oeste 15 Oeste 0 -- -- 84
2020-01-17 05:00:00 11.2 8 Oeste 13 Oeste 0 -- -- 84
2020-01-17 04:00:00 10.9 3 Sudoeste 4 Sudoeste 0 -- -- 86
2020-01-17 03:00:00 11.9 2 Sudoeste 6 Oeste 0 -- -- 83
2020-01-17 02:00:00 12.3 3 Oeste 6 Oeste 0 -- -- 84
2020-01-17 01:00:00 12.1 2 Sudoeste 5 Oeste 0 -- -- 84
2020-01-17 00:00:00 11.9 3 Oeste 6 Oeste 0 -- -- 85
2020-01-16 23:00:00 11.7 4 Oeste 6 Oeste 0 -- -- 88
2020-01-16 22:00:00 12.1 4 Oeste 6 Oeste 0 -- -- 87
2020-01-16 21:00:00 12.7 3 Oeste 12 Oeste 0 -- -- 85
2020-01-16 20:00:00 12.4 8 Oeste 14 Oeste 0 -- -- 85
2020-01-16 19:00:00 12.7 9 Oeste 20 Oeste 0 -- -- 83
2020-01-16 18:00:00 13 9 Oeste 16 Sudoeste 0 -- -- 79
2020-01-16 17:00:00 14 9 Oeste 19 Oeste 0 -- -- 73
2020-01-16 16:00:00 15.4 12 Oeste 23 Oeste 0 -- -- 62
2020-01-16 15:00:00 15.5 10 Oeste 19 Oeste 0 -- -- 61
2020-01-16 14:00:00 15.1 10 Oeste 16 Oeste 0 -- -- 55
2020-01-16 13:00:00 14.3 8 Oeste 15 Sudoeste 0 -- -- 57
2020-01-16 12:00:00 12.9 5 Sudoeste 10 Sudoeste 0 -- -- 65
2020-01-16 11:00:00 10.8 3 Sudeste 8 Sudoeste 0 -- -- 70
2020-01-16 10:00:00 9.8 2 Oeste 6 Noroeste 0 -- -- 74
2020-01-16 09:00:00 8.2 0 Calma 7 Nordeste 0 -- -- 74
2020-01-16 08:00:00 8.5 3 Nordeste 9 Noroeste 0 -- -- 75
2020-01-16 07:00:00 8.9 8 Noroeste 10 Oeste 0 -- -- 72
2020-01-16 06:00:00 8.6 0 Calma 9 Oeste 0 -- -- 74
2020-01-16 05:00:00 8.6 3 Oeste 5 Oeste 0 -- -- 74
2020-01-16 04:00:00 8.8 0 Calma 6 Noroeste 0 -- -- 73
2020-01-16 03:00:00 8.5 0 Calma 5 Oeste 0 -- -- 74
2020-01-16 02:00:00 9.3 3 Oeste 6 Este 0 -- -- 70
2020-01-16 01:00:00 9.9 3 Sudoeste 7 Oeste 0 -- -- 68
2020-01-16 00:00:00 10.2 4 Oeste 6 Oeste 0 -- -- 67
2020-01-15 23:00:00 10.7 4 Oeste 10 Oeste 0 -- -- 67
2020-01-15 22:00:00 11.2 4 Noroeste 10 Oeste 0 -- -- 65
2020-01-15 21:00:00 11.8 4 Oeste 13 Oeste 0 -- -- 64
2020-01-15 20:00:00 11.9 7 Oeste 10 Oeste 0 -- -- 65
2020-01-15 19:00:00 11.8 6 Oeste 14 Oeste 0 -- -- 65
2020-01-15 18:00:00 12.2 7 Oeste 22 Oeste 0 -- -- 67
2020-01-15 17:00:00 13 11 Oeste 25 Oeste 0 -- -- 62
2020-01-15 16:00:00 14.5 15 Oeste 24 Oeste 0 -- -- 49
2020-01-15 15:00:00 15.1 10 Oeste 19 Oeste 0 -- -- 44
2020-01-15 14:00:00 14.1 8 Oeste 18 Oeste 0 -- -- 56
2020-01-15 13:00:00 13.1 8 Oeste 13 Oeste 0 -- -- 52
2020-01-15 12:00:00 11.5 4 Sudeste 8 Sudeste 0 -- -- 69
2020-01-15 11:00:00 10.4 0 Calma 8 Oeste 0 -- -- 72
2020-01-15 10:00:00 8.5 0 Calma 4 Sudeste 0 -- -- 80
2020-01-15 09:00:00 7.6 0 Calma 5 Oeste 0 -- -- 86
2020-01-15 08:00:00 7.3 0 Calma 4 Oeste 0 -- -- 87
2020-01-15 07:00:00 7.7 3 Oeste 5 Oeste 0 -- -- 87
2020-01-15 06:00:00 7 2 Oeste 3 Oeste 0 -- -- 87
2020-01-15 05:00:00 7.6 2 Oeste 5 Oeste 0 -- -- 87
2020-01-15 04:00:00 8 2 Oeste 5 Oeste 0 -- -- 86
2020-01-15 03:00:00 8.2 4 Oeste 5 Oeste 0 -- -- 85
2020-01-15 02:00:00 8.5 2 Oeste 5 Oeste 0 -- -- 84
2020-01-15 01:00:00 9 3 Oeste 5 Noroeste 0 -- -- 82
2020-01-15 00:00:00 9.4 4 Noroeste 6 Oeste 0 -- -- 81
2020-01-14 23:00:00 10 4 Oeste 6 Oeste 0 -- -- 80
2020-01-14 22:00:00 10.6 4 Oeste 6 Oeste 0 -- -- 78
2020-01-14 21:00:00 10.6 4 Oeste 6 Oeste 0 -- -- 78
2020-01-14 20:00:00 10.9 4 Oeste 7 Oeste 0 -- -- 77
2020-01-14 19:00:00 11.5 4 Oeste 12 Oeste 0 -- -- 74
2020-01-14 18:00:00 12.4 8 Oeste 23 Oeste 0 -- -- 68
2020-01-14 17:00:00 13.4 13 Oeste 24 Sudoeste 0 -- -- 48
2020-01-14 16:00:00 14.5 12 Oeste 21 Oeste 0 -- -- 50
2020-01-14 15:00:00 14.7 11 Oeste 22 Oeste 0 -- -- 48
2020-01-14 14:00:00 15.2 10 Oeste 18 Oeste 0 -- -- 42
2020-01-14 13:00:00 14.4 8 Oeste 14 Oeste 0 -- -- 41
2020-01-14 12:00:00 13.1 7 Oeste 15 Oeste 0 -- -- 42
2020-01-14 11:00:00 11.1 8 Oeste 14 Oeste 0 -- -- 47
2020-01-14 10:00:00 9.3 3 Oeste 9 Oeste 0 -- -- 56
2020-01-14 09:00:00 8.4 6 Oeste 11 Noroeste 0 -- -- 58
2020-01-14 08:00:00 8.3 8 Oeste 13 Noroeste 0 -- -- 58
2020-01-14 07:00:00 7.5 2 Noroeste 10 Noroeste 0 -- -- 78
2020-01-14 06:00:00 7.1 4 Oeste 8 Noroeste 0 -- -- 85
2020-01-14 05:00:00 7 0 Calma 5 Sudeste 0 -- -- 87
2020-01-14 04:00:00 7.4 0 Calma 4 Sudeste 0 -- -- 87
2020-01-14 03:00:00 8 3 Oeste 5 Noroeste 0 -- -- 86
2020-01-14 02:00:00 8.6 2 Oeste 6 Oeste 0 -- -- 84
2020-01-14 01:00:00 9.2 3 Oeste 6 Oeste 0 -- -- 81
2020-01-14 00:00:00 9.2 3 Oeste 7 Oeste 0 -- -- 78
2020-01-13 23:00:00 9.1 4 Oeste 6 Oeste 0 -- -- 75
2020-01-13 22:00:00 9.4 0 Calma 7 Oeste 0 -- -- 75
2020-01-13 21:00:00 10.4 4 Oeste 13 Oeste 0 -- -- 71
2020-01-13 20:00:00 10.8 6 Oeste 15 Oeste 0 -- -- 71
2020-01-13 19:00:00 11.1 7 Sudoeste 21 Oeste 0 -- -- 72
2020-01-13 18:00:00 11.5 12 Oeste 21 Oeste 0 -- -- 71
2020-01-13 17:00:00 12 11 Oeste 22 Oeste 0 -- -- 68
2020-01-13 16:00:00 12.9 9 Oeste 27 Sudoeste 0 -- -- 55
2020-01-13 15:00:00 13.2 11 Oeste 23 Oeste 0 -- -- 48
2020-01-13 14:00:00 12.5 10 Oeste 17 Oeste 0 -- -- 49
2020-01-13 13:00:00 12.1 9 Oeste 18 Sudoeste 0 -- -- 47
2020-01-13 12:00:00 11.3 8 Oeste 16 Oeste 0 -- -- 43
2020-01-13 11:00:00 9.2 7 Oeste 13 Oeste 0 -- -- 51
2020-01-13 10:00:00 8.6 8 Oeste 18 Oeste 0 -- -- 54
2020-01-13 09:00:00 7.8 10 Oeste 21 Oeste 0 -- -- 55
2020-01-13 08:00:00 7.8 7 Oeste 19 Oeste 0 -- -- 56
2020-01-13 07:00:00 7.4 6 Oeste 13 Noroeste 0 -- -- 57
2020-01-13 06:00:00 7.8 10 Oeste 18 Oeste 0 -- -- 54
2020-01-13 05:00:00 8 8 Oeste 19 Oeste 0 -- -- 54
2020-01-13 04:00:00 8.2 8 Oeste 11 Noroeste 0 -- -- 56
2020-01-13 03:00:00 8.4 5 Oeste 12 Oeste 0 -- -- 54
2020-01-13 02:00:00 8.8 7 Oeste 12 Oeste 0 -- -- 51
2020-01-13 01:00:00 8.7 5 Noroeste 15 Noroeste 0 -- -- 54
2020-01-13 00:00:00 8.9 6 Oeste 12 Oeste 0 -- -- 56
2020-01-12 23:00:00 8.9 0 Calma 10 Oeste 0 -- -- 60
2020-01-12 22:00:00 10.3 8 Oeste 19 Noroeste 0 -- -- 55
2020-01-12 21:00:00 9.9 6 Oeste 15 Noroeste 0 -- -- 60
2020-01-12 20:00:00 10 6 Oeste 11 Oeste 0 -- -- 69
2020-01-12 19:00:00 10.1 3 Sudeste 5 Oeste 0 -- -- 71
2020-01-12 18:00:00 11.1 4 Sudoeste 12 Oeste 0 -- -- 70
2020-01-12 17:00:00 12.9 4 Sudoeste 13 Sur 0 -- -- 67
2020-01-12 16:00:00 13.8 3 Este 11 Sur 0 -- -- 65
2020-01-12 15:00:00 13.3 7 Sudeste 13 Este 0 -- -- 64
2020-01-12 14:00:00 13.3 3 Sudeste 10 Sudeste 0 -- -- 64
2020-01-12 13:00:00 12.1 3 Sudeste 9 Nordeste 0 -- -- 67
2020-01-12 12:00:00 10.9 4 Este 12 Nordeste 0 -- -- 64
2020-01-12 11:00:00 9 9 Nordeste 15 Nordeste 0 -- -- 62
2020-01-12 10:00:00 7.4 4 Nordeste 7 Nordeste 0 -- -- 70
2020-01-12 09:00:00 5.8 0 Calma 8 Oeste 0 -- -- 77
2020-01-12 08:00:00 5.7 4 Oeste 7 Oeste 0 -- -- 77
2020-01-12 07:00:00 5.5 2 Oeste 5 Sudoeste 0 -- -- 79
2020-01-12 06:00:00 5.6 2 Oeste 5 Oeste 0 -- -- 79
2020-01-12 05:00:00 6.1 2 Oeste 7 Oeste 0 -- -- 76
2020-01-12 04:00:00 6.6 0 Calma 12 Oeste 0 -- -- 74
2020-01-12 03:00:00 7.2 4 Oeste 13 Oeste 0 -- -- 72
2020-01-12 02:00:00 7.3 6 Oeste 11 Oeste 0 -- -- 72
2020-01-12 01:00:00 7.5 5 Oeste 9 Oeste 0 -- -- 71
2020-01-12 00:00:00 7.8 4 Oeste 9 Oeste 0 -- -- 68
2020-01-11 23:00:00 8.2 5 Oeste 14 Oeste 0 -- -- 65
2020-01-11 22:00:00 9 8 Oeste 14 Noroeste 0 -- -- 61
2020-01-11 21:00:00 9.2 5 Oeste 9 Oeste 0 -- -- 60
2020-01-11 20:00:00 9.5 6 Oeste 10 Oeste 0 -- -- 63
2020-01-11 19:00:00 9.7 5 Oeste 8 Oeste 0 -- -- 70
2020-01-11 18:00:00 10.2 0 Calma 5 Este 0 -- -- 69
2020-01-11 17:00:00 11.8 3 Sur 10 Sudeste 0 -- -- 60
2020-01-11 16:00:00 12.5 4 Este 13 Sudeste 0 -- -- 57
2020-01-11 15:00:00 12.3 4 Este 12 Sudeste 0 -- -- 60
2020-01-11 14:00:00 12 3 Sur 11 Nordeste 0 -- -- 62
2020-01-11 13:00:00 10.7 6 Nordeste 15 Nordeste 0 -- -- 64
2020-01-11 12:00:00 9.9 5 Nordeste 17 Noroeste 0 -- -- 63
2020-01-11 11:00:00 8.6 4 Nordeste 13 Oeste 0 -- -- 66
2020-01-11 10:00:00 7.9 4 Oeste 15 Noroeste 0 -- -- 70
2020-01-11 09:00:00 7.1 4 Oeste 13 Oeste 0 -- -- 76
2020-01-11 08:00:00 7.3 3 Oeste 10 Oeste 0 -- -- 77
2020-01-11 07:00:00 7.9 6 Oeste 10 Oeste 0 -- -- 74
2020-01-11 06:00:00 8.1 5 Oeste 16 Oeste 0 -- -- 75
2020-01-11 05:00:00 8.3 8 Oeste 15 Oeste 0 -- -- 77
2020-01-11 04:00:00 8.7 6 Oeste 13 Oeste 0 -- -- 78
2020-01-11 03:00:00 8.9 8 Noroeste 10 Oeste 0 -- -- 82
2020-01-11 02:00:00 8.9 2 Oeste 8 Oeste 0 -- -- 82
2020-01-11 01:00:00 9.2 3 Oeste 9 Nordeste 0 -- -- 79
2020-01-11 00:00:00 9.4 2 Oeste 9 Nordeste 0 -- -- 76
2020-01-10 23:00:00 9.1 4 Oeste 8 Oeste 0 -- -- 80
2020-01-10 22:00:00 9.4 3 Norte 9 Nordeste 0 -- -- 76
2020-01-10 21:00:00 9.3 3 Sudoeste 17 Oeste 0 -- -- 78
2020-01-10 20:00:00 9.8 7 Oeste 14 Oeste 0 -- -- 76
2020-01-10 19:00:00 9.9 6 Oeste 15 Oeste 0 -- -- 76
2020-01-10 18:00:00 11.4 6 Oeste 18 Oeste 0 -- -- 77
2020-01-10 17:00:00 11.7 5 Oeste 9 Noroeste 0 -- -- 77
2020-01-10 16:00:00 12.2 4 Oeste 13 Oeste 0 -- -- 76
2020-01-10 15:00:00 11.8 3 Oeste 8 Oeste 0 -- -- 79
2020-01-10 14:00:00 10.8 3 Este 16 Noroeste 0 -- -- 83
2020-01-10 13:00:00 10.5 11 Oeste 19 Oeste 0.2 -- -- 85
2020-01-10 12:00:00 9.6 2 Oeste 17 Este 0.2 -- -- 91
2020-01-10 11:00:00 9.5 5 Nordeste 18 Nordeste 1.2 -- -- 89
2020-01-10 10:00:00 10.3 4 Nordeste 21 Sudeste 5 -- -- 94
2020-01-10 09:00:00 10.7 7 Este 21 Sudeste 4.6 -- -- 94
2020-01-10 08:00:00 10.1 4 Este 11 Este 2.2 -- -- 91
2020-01-10 07:00:00 10.4 4 Nordeste 12 Este 0.8 -- -- 88
2020-01-10 06:00:00 11.1 5 Nordeste 12 Nordeste 0 -- -- 80
2020-01-10 05:00:00 11.3 2 Este 8 Nordeste 0 -- -- 80
2020-01-10 04:00:00 11.1 0 Calma 9 Nordeste 0 -- -- 81
2020-01-10 03:00:00 10.7 0 Calma 5 Norte 0 -- -- 82
2020-01-10 02:00:00 10.3 0 Calma 4 Este 0 -- -- 86
2020-01-10 01:00:00 9.8 0 Calma 4 Sudoeste 0 -- -- 86
2020-01-10 00:00:00 10.2 0 Calma 3 Oeste 0 -- -- 84
2020-01-09 23:00:00 10.6 2 Sudoeste 7 Oeste 0 -- -- 81
2020-01-09 22:00:00 11.1 3 Sudoeste 8 Oeste 0 -- -- 79
2020-01-09 21:00:00 11.6 4 Sudoeste 11 Noroeste 0 -- -- 77
2020-01-09 20:00:00 11.7 4 Oeste 10 Oeste 0 -- -- 79
2020-01-09 19:00:00 11.9 7 Oeste 20 Sudoeste 0 -- -- 79
2020-01-09 18:00:00 12.3 11 Oeste 24 Noroeste 0 -- -- 77
2020-01-09 17:00:00 13.2 11 Oeste 27 Oeste 0 -- -- 74
2020-01-09 16:00:00 14.3 14 Oeste 25 Oeste 0 -- -- 68
2020-01-09 15:00:00 14.5 13 Oeste 24 Oeste 0 -- -- 69
2020-01-09 14:00:00 14.5 13 Oeste 21 Oeste 0 -- -- 70
2020-01-09 13:00:00 13.9 12 Oeste 21 Oeste 0 -- -- 72
2020-01-09 12:00:00 12.8 9 Oeste 15 Oeste 0 -- -- 76
2020-01-09 11:00:00 11 6 Oeste 10 Noroeste 0 -- -- 83
2020-01-09 10:00:00 9.2 2 Sur 4 Sudeste 0 -- -- 90
2020-01-09 09:00:00 7.9 0 Calma 2 Sudeste 0 -- -- 90
2020-01-09 08:00:00 8 2 Este 5 Este 0 -- -- 90
2020-01-09 07:00:00 8.4 0 Calma 8 Oeste 0 -- -- 89
2020-01-09 06:00:00 9.2 6 Noroeste 8 Oeste 0 -- -- 91
2020-01-09 05:00:00 9.3 4 Oeste 7 Oeste 0 -- -- 90
2020-01-09 04:00:00 9.7 3 Oeste 7 Oeste 0 -- -- 90
2020-01-09 03:00:00 9.1 0 Calma 4 Oeste 0 -- -- 90
2020-01-09 02:00:00 9.5 0 Calma 5 Noroeste 0 -- -- 89
2020-01-09 01:00:00 9.9 0 Calma 7 Noroeste 0 -- -- 87
2020-01-09 00:00:00 10.1 3 Oeste 4 Oeste 0 -- -- 86
2020-01-08 23:00:00 10.7 0 Calma 6 Oeste 0 -- -- 84
2020-01-08 22:00:00 11.1 3 Oeste 5 Oeste 0 -- -- 84
2020-01-08 21:00:00 11.5 3 Oeste 6 Noroeste 0 -- -- 82
2020-01-08 20:00:00 12 2 Oeste 4 Oeste 0 -- -- 81
2020-01-08 19:00:00 12.7 0 Calma 9 Sudeste 0 -- -- 78
2020-01-08 18:00:00 13.5 4 Este 8 Sudeste 0 -- -- 74
2020-01-08 17:00:00 14.6 3 Sudeste 10 Este 0 -- -- 72
2020-01-08 16:00:00 15.5 5 Sudeste 12 Sudeste 0 -- -- 67
2020-01-08 15:00:00 16.1 5 Este 14 Sudeste 0 -- -- 61
2020-01-08 14:00:00 15.9 4 Sudeste 10 Sudeste 0 -- -- 62
2020-01-08 13:00:00 15.3 5 Este 13 Este 0 -- -- 63
2020-01-08 12:00:00 14.5 5 Oeste 7 Oeste 0 -- -- 65
2020-01-08 11:00:00 12.3 3 Este 9 Norte 0 -- -- 63
2020-01-08 10:00:00 10.9 2 Oeste 10 Noroeste 0 -- -- 76
2020-01-08 09:00:00 9.1 0 Calma 4 Nordeste 0 -- -- 80
2020-01-08 08:00:00 8.8 0 Calma 3 Nordeste 0 -- -- 81
2020-01-08 07:00:00 9.1 2 Nordeste 6 Nordeste 0 -- -- 78
2020-01-08 06:00:00 9.6 4 Nordeste 11 Nordeste 0 -- -- 74
2020-01-08 05:00:00 9.4 4 Nordeste 9 Nordeste 0 -- -- 72
2020-01-08 04:00:00 9.3 2 Oeste 8 Nordeste 0 -- -- 73
2020-01-08 03:00:00 8.5 5 Oeste 8 Nordeste 0 -- -- 69
2020-01-08 02:00:00 8.4 3 Sudeste 8 Oeste 0 -- -- 71
2020-01-08 01:00:00 8.9 4 Oeste 6 Oeste 0 -- -- 70
2020-01-08 00:00:00 9.4 0 Calma 4 Oeste 0 -- -- 70
2020-01-07 23:00:00 10.3 0 Calma 7 Oeste 0 -- -- 66
2020-01-07 22:00:00 10.8 5 Noroeste 8 Oeste 0 -- -- 63
2020-01-07 21:00:00 11.3 5 Noroeste 8 Noroeste 0 -- -- 62
2020-01-07 20:00:00 11.4 3 Oeste 8 Oeste 0 -- -- 63
2020-01-07 19:00:00 12.1 5 Oeste 10 Oeste 0 -- -- 62
2020-01-07 18:00:00 12.5 3 Sudoeste 14 Oeste 0 -- -- 67
2020-01-07 17:00:00 14.2 3 Oeste 12 Sudoeste 0 -- -- 64
2020-01-07 16:00:00 15.8 5 Sudoeste 17 Oeste 0 -- -- 46
2020-01-07 15:00:00 15.8 11 Oeste 17 Oeste 0 -- -- 44
2020-01-07 14:00:00 15.2 10 Oeste 20 Sudoeste 0 -- -- 46
2020-01-07 13:00:00 13.9 4 Sur 8 Noroeste 0 -- -- 54
2020-01-07 12:00:00 12.2 2 Este 8 Sudeste 0 -- -- 59
2020-01-07 11:00:00 11.1 2 Sur 9 Oeste 0 -- -- 60
2020-01-07 10:00:00 9.9 6 Oeste 12 Noroeste 0 -- -- 61
2020-01-07 09:00:00 8.8 4 Oeste 13 Oeste 0 -- -- 69
2020-01-07 08:00:00 8.9 3 Oeste 11 Noroeste 0 -- -- 69
2020-01-07 07:00:00 9 5 Oeste 10 Oeste 0 -- -- 73
2020-01-07 06:00:00 9.1 7 Oeste 11 Oeste 0 -- -- 73
2020-01-07 05:00:00 9.1 7 Oeste 11 Oeste 0 -- -- 75
2020-01-07 04:00:00 9.4 6 Oeste 10 Noroeste 0 -- -- 80
2020-01-07 03:00:00 9.2 2 Oeste 7 Oeste 0 -- -- 84
2020-01-07 02:00:00 9.5 3 Noroeste 5 Oeste 0 -- -- 84
2020-01-07 01:00:00 10.1 2 Nordeste 6 Oeste 0 -- -- 82
2020-01-07 00:00:00 9.8 5 Oeste 6 Oeste 0 -- -- 84
2020-01-06 23:00:00 9.9 0 Calma 3 Oeste 0 -- -- 83
2020-01-06 22:00:00 10.5 0 Calma 5 Oeste 0 -- -- 81
2020-01-06 21:00:00 11.1 4 Oeste 8 Oeste 0 -- -- 79
2020-01-06 20:00:00 11.4 4 Oeste 6 Noroeste 0 -- -- 77
2020-01-06 19:00:00 11.8 3 Oeste 5 Oeste 0 -- -- 76
2020-01-06 18:00:00 12.6 3 Oeste 5 Sudoeste 0 -- -- 74
2020-01-06 17:00:00 13.8 2 Este 10 Este 0 -- -- 69
2020-01-06 16:00:00 15.1 4 Este 10 Sudeste 0 -- -- 64
2020-01-06 15:00:00 15.5 3 Sudeste 10 Sudeste 0 -- -- 61
2020-01-06 14:00:00 15.1 3 Sudeste 10 Sudeste 0 -- -- 61
2020-01-06 13:00:00 14.2 4 Este 9 Nordeste 0 -- -- 63
2020-01-06 12:00:00 13.1 4 Este 10 Nordeste 0 -- -- 61
2020-01-06 11:00:00 11.6 6 Nordeste 10 Nordeste 0 -- -- 62
2020-01-06 10:00:00 9.7 3 Noroeste 7 Oeste 0 -- -- 67